Portada
METAR-TAF:

METAR-TAF

Aeropuertos :

Logroño, España

Aeropuerto de Logroño-Agoncillo

latitud: 42-27N, longitud: 002-20W, altitud: 353 m

Observación

El informe se hizo hace 40 minutos, a las 16:00 UTC
Viento 12 kt del este, variando entre este-noreste y sureste
Temperatura 28°C
Humedad 32%
Presión 1014 hPa
Visibilidad 10 km o más
sin nubes por debajo de 1500 m y sin presencia de cumulonimbus.

METAR: LELO 281600Z 10012KT 070V130 CAVOK 28/10 Q1014

Hora: 18:40 (16:40 UTC)

Pronóstico

El informe se hizo hace 2 horas y 40 minutos, a las 14:00 UTC
Pronóstico válido del 28 a las 15 UTC al 28 a las 24 UTC
Viento 14 kt del este
Visibilidad 10 km o más
sin nubes por debajo de 1500 m y sin presencia de cumulonimbus.
Temporalmente
del 28 a las 15 UTC al 28 a las 20 UTC
Escasas nubes a una altura de 4000 ft, Cumulus congestus.

TAF: LELO 281400Z 2815/2824 10014KT CAVOK TEMPO 2815/2820 FEW040TCU

Observaciones y pronósticos meteorológicos de más de 4000 aeropuertos (mensajes METAR y TAF).

Los puntos amarillos y rojos representan las estaciones disponibles.

Ponga el ratón en el punto deseado para ver el nombre de la estación.

Haga clic para ver las observaciones y los pronósticos meteorológicos.

Para cambiar el mapa : haga clic en los botones verdes con una cruz de color negro para hacer un zoom, en el botón verde con un guión para alejar o en las flechas verdes para mapas adyacentes.


METAR-TAF: